sensor_id;sensor_type;location;lat;lon;timestamp;temperature;humidity
14755;DHT22;7469;50.906;6.952;2023-08-07T00:00:05;14.20;99.90
14755;DHT22;7469;50.906;6.952;2023-08-07T00:02:36;14.10;99.90
14755;DHT22;7469;50.906;6.952;2023-08-07T00:05:04;14.00;99.90
14755;DHT22;7469;50.906;6.952;2023-08-07T00:07:32;14.10;99.90
14755;DHT22;7469;50.906;6.952;2023-08-07T00:10:00;14.00;99.90
14755;DHT22;7469;50.906;6.952;2023-08-07T00:12:31;14.00;99.90
14755;DHT22;7469;50.906;6.952;2023-08-07T00:14:59;14.00;99.90
14755;DHT22;7469;50.906;6.952;2023-08-07T00:17:27;13.90;99.90
14755;DHT22;7469;50.906;6.952;2023-08-07T00:19:55;13.90;99.90
14755;DHT22;7469;50.906;6.952;2023-08-07T00:22:24;13.80;99.90
14755;DHT22;7469;50.906;6.952;2023-08-07T00:24:52;13.80;99.90
14755;DHT22;7469;50.906;6.952;2023-08-07T00:27:20;13.80;99.90
14755;DHT22;7469;50.906;6.952;2023-08-07T00:29:50;13.80;99.90
14755;DHT22;7469;50.906;6.952;2023-08-07T00:32:18;13.70;99.90
14755;DHT22;7469;50.906;6.952;2023-08-07T00:34:46;13.80;99.90
14755;DHT22;7469;50.906;6.952;2023-08-07T00:37:14;13.80;99.90
14755;DHT22;7469;50.906;6.952;2023-08-07T00:39:42;13.80;99.90
14755;DHT22;7469;50.906;6.952;2023-08-07T00:42:10;13.80;99.90
14755;DHT22;7469;50.906;6.952;2023-08-07T00:44:38;13.80;99.90
14755;DHT22;7469;50.906;6.952;2023-08-07T00:47:07;13.80;99.90
14755;DHT22;7469;50.906;6.952;2023-08-07T00:49:36;13.80;99.90
14755;DHT22;7469;50.906;6.952;2023-08-07T00:52:04;13.80;99.90
14755;DHT22;7469;50.906;6.952;2023-08-07T00:54:32;13.80;99.90
14755;DHT22;7469;50.906;6.952;2023-08-07T00:57:10;13.80;99.90
14755;DHT22;7469;50.906;6.952;2023-08-07T00:59:39;13.70;99.90
14755;DHT22;7469;50.906;6.952;2023-08-07T01:02:09;13.70;99.90
14755;DHT22;7469;50.906;6.952;2023-08-07T01:04:40;13.60;99.90
14755;DHT22;7469;50.906;6.952;2023-08-07T01:07:08;13.60;99.90
14755;DHT22;7469;50.906;6.952;2023-08-07T01:09:36;13.60;99.90
14755;DHT22;7469;50.906;6.952;2023-08-07T01:12:13;13.60;99.90
14755;DHT22;7469;50.906;6.952;2023-08-07T01:14:49;13.60;99.90
14755;DHT22;7469;50.906;6.952;2023-08-07T01:17:21;13.60;99.90
14755;DHT22;7469;50.906;6.952;2023-08-07T01:19:50;13.60;99.90
14755;DHT22;7469;50.906;6.952;2023-08-07T01:22:20;13.60;99.90
14755;DHT22;7469;50.906;6.952;2023-08-07T01:24:50;13.60;99.90
14755;DHT22;7469;50.906;6.952;2023-08-07T01:27:30;13.60;99.90
14755;DHT22;7469;50.906;6.952;2023-08-07T01:30:02;13.60;99.90
14755;DHT22;7469;50.906;6.952;2023-08-07T01:32:35;13.60;99.90
14755;DHT22;7469;50.906;6.952;2023-08-07T01:35:07;13.60;99.90
14755;DHT22;7469;50.906;6.952;2023-08-07T01:37:41;13.70;99.90
14755;DHT22;7469;50.906;6.952;2023-08-07T01:40:10;13.70;99.90
14755;DHT22;7469;50.906;6.952;2023-08-07T01:42:39;13.70;99.90
14755;DHT22;7469;50.906;6.952;2023-08-07T01:45:08;13.70;99.90
14755;DHT22;7469;50.906;6.952;2023-08-07T01:47:36;13.70;99.90
14755;DHT22;7469;50.906;6.952;2023-08-07T01:50:04;13.70;99.90
14755;DHT22;7469;50.906;6.952;2023-08-07T01:52:32;13.70;99.90
14755;DHT22;7469;50.906;6.952;2023-08-07T01:55:02;13.70;99.90
14755;DHT22;7469;50.906;6.952;2023-08-07T01:57:30;13.70;99.90
14755;DHT22;7469;50.906;6.952;2023-08-07T01:59:58;13.70;99.90
14755;DHT22;7469;50.906;6.952;2023-08-07T02:02:26;13.70;99.90
14755;DHT22;7469;50.906;6.952;2023-08-07T02:04:54;13.70;99.90
14755;DHT22;7469;50.906;6.952;2023-08-07T02:07:22;13.70;99.90
14755;DHT22;7469;50.906;6.952;2023-08-07T02:09:50;13.70;99.90
14755;DHT22;7469;50.906;6.952;2023-08-07T02:12:19;13.70;99.90
14755;DHT22;7469;50.906;6.952;2023-08-07T02:14:47;13.80;99.90
14755;DHT22;7469;50.906;6.952;2023-08-07T02:17:15;13.70;99.90
14755;DHT22;7469;50.906;6.952;2023-08-07T02:19:43;13.70;99.90
14755;DHT22;7469;50.906;6.952;2023-08-07T02:22:11;13.80;99.90
14755;DHT22;7469;50.906;6.952;2023-08-07T02:24:39;13.80;99.90
14755;DHT22;7469;50.906;6.952;2023-08-07T02:27:07;13.80;99.90
14755;DHT22;7469;50.906;6.952;2023-08-07T02:29:36;13.80;99.90
14755;DHT22;7469;50.906;6.952;2023-08-07T02:32:05;13.80;99.90
14755;DHT22;7469;50.906;6.952;2023-08-07T02:34:33;13.90;99.90
14755;DHT22;7469;50.906;6.952;2023-08-07T02:37:01;13.90;99.90
14755;DHT22;7469;50.906;6.952;2023-08-07T02:39:29;13.90;99.90
14755;DHT22;7469;50.906;6.952;2023-08-07T02:41:56;13.90;99.90
14755;DHT22;7469;50.906;6.952;2023-08-07T02:44:24;13.90;99.90
14755;DHT22;7469;50.906;6.952;2023-08-07T02:46:54;13.90;99.90
14755;DHT22;7469;50.906;6.952;2023-08-07T02:49:22;13.90;99.90
14755;DHT22;7469;50.906;6.952;2023-08-07T02:51:50;13.90;99.90
14755;DHT22;7469;50.906;6.952;2023-08-07T02:54:18;13.90;99.90
14755;DHT22;7469;50.906;6.952;2023-08-07T02:56:46;13.90;99.90
14755;DHT22;7469;50.906;6.952;2023-08-07T02:59:15;13.80;99.90
14755;DHT22;7469;50.906;6.952;2023-08-07T03:01:44;13.80;99.90
14755;DHT22;7469;50.906;6.952;2023-08-07T03:04:13;13.80;99.90
14755;DHT22;7469;50.906;6.952;2023-08-07T03:06:41;13.80;99.90
14755;DHT22;7469;50.906;6.952;2023-08-07T03:09:09;13.80;99.90
14755;DHT22;7469;50.906;6.952;2023-08-07T03:11:37;13.70;99.90
14755;DHT22;7469;50.906;6.952;2023-08-07T03:14:05;13.70;99.90
14755;DHT22;7469;50.906;6.952;2023-08-07T03:16:33;13.70;99.90
14755;DHT22;7469;50.906;6.952;2023-08-07T03:19:01;13.70;99.90
14755;DHT22;7469;50.906;6.952;2023-08-07T03:21:30;13.70;99.90
14755;DHT22;7469;50.906;6.952;2023-08-07T03:23:58;13.60;99.90
14755;DHT22;7469;50.906;6.952;2023-08-07T03:26:26;13.60;99.90
14755;DHT22;7469;50.906;6.952;2023-08-07T03:28:54;13.60;99.90
14755;DHT22;7469;50.906;6.952;2023-08-07T03:31:22;13.60;99.90
14755;DHT22;7469;50.906;6.952;2023-08-07T03:33:50;13.60;99.90
14755;DHT22;7469;50.906;6.952;2023-08-07T03:36:18;13.60;99.90
14755;DHT22;7469;50.906;6.952;2023-08-07T03:38:47;13.60;99.90
14755;DHT22;7469;50.906;6.952;2023-08-07T03:41:15;13.50;99.90
14755;DHT22;7469;50.906;6.952;2023-08-07T03:43:43;13.50;99.90
14755;DHT22;7469;50.906;6.952;2023-08-07T03:46:11;13.50;99.90
14755;DHT22;7469;50.906;6.952;2023-08-07T03:48:39;13.50;99.90
14755;DHT22;7469;50.906;6.952;2023-08-07T03:51:07;13.50;99.90
14755;DHT22;7469;50.906;6.952;2023-08-07T03:53:36;13.50;99.90
14755;DHT22;7469;50.906;6.952;2023-08-07T03:56:05;13.50;99.90
14755;DHT22;7469;50.906;6.952;2023-08-07T03:58:33;13.50;99.90
14755;DHT22;7469;50.906;6.952;2023-08-07T04:01:01;13.50;99.90
14755;DHT22;7469;50.906;6.952;2023-08-07T04:03:29;13.50;99.90
14755;DHT22;7469;50.906;6.952;2023-08-07T04:05:58;13.50;99.90
14755;DHT22;7469;50.906;6.952;2023-08-07T04:08:27;13.50;99.90
14755;DHT22;7469;50.906;6.952;2023-08-07T04:10:59;13.40;99.90
14755;DHT22;7469;50.906;6.952;2023-08-07T04:13:29;13.40;99.90
14755;DHT22;7469;50.906;6.952;2023-08-07T04:15:57;13.40;99.90
14755;DHT22;7469;50.906;6.952;2023-08-07T04:18:25;13.40;99.90
14755;DHT22;7469;50.906;6.952;2023-08-07T04:20:54;13.30;99.90
14755;DHT22;7469;50.906;6.952;2023-08-07T04:23:23;13.30;99.90
14755;DHT22;7469;50.906;6.952;2023-08-07T04:25:52;13.30;99.90
14755;DHT22;7469;50.906;6.952;2023-08-07T04:28:20;13.30;99.90
14755;DHT22;7469;50.906;6.952;2023-08-07T04:30:51;13.30;99.90
14755;DHT22;7469;50.906;6.952;2023-08-07T04:33:19;13.20;99.90
14755;DHT22;7469;50.906;6.952;2023-08-07T04:35:48;13.20;99.90
14755;DHT22;7469;50.906;6.952;2023-08-07T04:38:16;13.20;99.90
14755;DHT22;7469;50.906;6.952;2023-08-07T04:40:45;13.20;99.90
14755;DHT22;7469;50.906;6.952;2023-08-07T04:43:13;13.20;99.90
14755;DHT22;7469;50.906;6.952;2023-08-07T04:45:41;13.10;99.90
14755;DHT22;7469;50.906;6.952;2023-08-07T04:48:13;13.20;99.90
14755;DHT22;7469;50.906;6.952;2023-08-07T04:50:41;13.20;99.90
14755;DHT22;7469;50.906;6.952;2023-08-07T04:53:09;13.20;99.90
14755;DHT22;7469;50.906;6.952;2023-08-07T04:55:38;13.30;99.90
14755;DHT22;7469;50.906;6.952;2023-08-07T04:58:06;13.30;99.90
14755;DHT22;7469;50.906;6.952;2023-08-07T05:00:34;13.30;99.90
14755;DHT22;7469;50.906;6.952;2023-08-07T05:03:02;13.30;99.90
14755;DHT22;7469;50.906;6.952;2023-08-07T05:05:32;13.30;99.90
14755;DHT22;7469;50.906;6.952;2023-08-07T05:08:00;13.30;99.90
14755;DHT22;7469;50.906;6.952;2023-08-07T05:10:28;13.30;99.90
14755;DHT22;7469;50.906;6.952;2023-08-07T05:12:56;13.30;99.90
14755;DHT22;7469;50.906;6.952;2023-08-07T05:15:25;13.40;99.90
14755;DHT22;7469;50.906;6.952;2023-08-07T05:17:55;13.40;99.90
14755;DHT22;7469;50.906;6.952;2023-08-07T05:20:23;13.40;99.90
14755;DHT22;7469;50.906;6.952;2023-08-07T05:22:52;13.40;99.90
14755;DHT22;7469;50.906;6.952;2023-08-07T05:25:21;13.50;99.90
14755;DHT22;7469;50.906;6.952;2023-08-07T05:27:49;13.50;99.90
14755;DHT22;7469;50.906;6.952;2023-08-07T05:30:17;13.50;99.90
14755;DHT22;7469;50.906;6.952;2023-08-07T05:32:45;13.50;99.90
14755;DHT22;7469;50.906;6.952;2023-08-07T05:35:13;13.60;99.90
14755;DHT22;7469;50.906;6.952;2023-08-07T05:37:41;13.60;99.90
14755;DHT22;7469;50.906;6.952;2023-08-07T05:40:11;13.60;99.90
14755;DHT22;7469;50.906;6.952;2023-08-07T05:42:39;13.60;99.90
14755;DHT22;7469;50.906;6.952;2023-08-07T05:45:09;13.60;99.90
14755;DHT22;7469;50.906;6.952;2023-08-07T05:47:37;13.60;99.90
14755;DHT22;7469;50.906;6.952;2023-08-07T05:50:06;13.60;99.90
14755;DHT22;7469;50.906;6.952;2023-08-07T05:52:34;13.60;99.90
14755;DHT22;7469;50.906;6.952;2023-08-07T05:55:03;13.60;99.90
14755;DHT22;7469;50.906;6.952;2023-08-07T05:57:35;13.60;99.90
14755;DHT22;7469;50.906;6.952;2023-08-07T06:00:04;13.70;99.90
14755;DHT22;7469;50.906;6.952;2023-08-07T06:02:32;13.70;99.90
14755;DHT22;7469;50.906;6.952;2023-08-07T06:05:00;13.70;99.90
14755;DHT22;7469;50.906;6.952;2023-08-07T06:07:28;13.70;99.90
14755;DHT22;7469;50.906;6.952;2023-08-07T06:09:56;13.70;99.90
14755;DHT22;7469;50.906;6.952;2023-08-07T06:12:24;13.70;99.90
14755;DHT22;7469;50.906;6.952;2023-08-07T06:14:53;13.70;99.90
14755;DHT22;7469;50.906;6.952;2023-08-07T06:17:21;13.70;99.90
14755;DHT22;7469;50.906;6.952;2023-08-07T06:19:49;13.70;99.90
14755;DHT22;7469;50.906;6.952;2023-08-07T06:22:17;13.70;99.90
14755;DHT22;7469;50.906;6.952;2023-08-07T06:24:45;13.60;99.90
14755;DHT22;7469;50.906;6.952;2023-08-07T06:27:13;13.60;99.90
14755;DHT22;7469;50.906;6.952;2023-08-07T06:29:41;13.50;99.90
14755;DHT22;7469;50.906;6.952;2023-08-07T06:32:10;13.50;99.90
14755;DHT22;7469;50.906;6.952;2023-08-07T06:34:38;13.50;99.90
14755;DHT22;7469;50.906;6.952;2023-08-07T06:37:06;13.50;99.90
14755;DHT22;7469;50.906;6.952;2023-08-07T06:39:35;13.40;99.90
14755;DHT22;7469;50.906;6.952;2023-08-07T06:42:03;13.40;99.90
14755;DHT22;7469;50.906;6.952;2023-08-07T06:44:31;13.50;99.90
14755;DHT22;7469;50.906;6.952;2023-08-07T06:46:59;13.40;99.90
14755;DHT22;7469;50.906;6.952;2023-08-07T06:49:29;13.30;99.90
14755;DHT22;7469;50.906;6.952;2023-08-07T06:51:58;13.30;99.90
14755;DHT22;7469;50.906;6.952;2023-08-07T06:54:26;13.30;99.90
14755;DHT22;7469;50.906;6.952;2023-08-07T06:56:54;13.30;99.90
14755;DHT22;7469;50.906;6.952;2023-08-07T06:59:22;13.30;99.90
14755;DHT22;7469;50.906;6.952;2023-08-07T07:01:50;13.20;99.90
14755;DHT22;7469;50.906;6.952;2023-08-07T07:04:19;13.20;99.90
14755;DHT22;7469;50.906;6.952;2023-08-07T07:06:48;13.20;99.90
14755;DHT22;7469;50.906;6.952;2023-08-07T07:09:16;13.20;99.90
14755;DHT22;7469;50.906;6.952;2023-08-07T07:11:44;13.20;99.90
14755;DHT22;7469;50.906;6.952;2023-08-07T07:14:12;13.20;99.90
14755;DHT22;7469;50.906;6.952;2023-08-07T07:16:40;13.30;99.90
14755;DHT22;7469;50.906;6.952;2023-08-07T07:19:08;13.30;99.90
14755;DHT22;7469;50.906;6.952;2023-08-07T07:21:36;13.20;99.90
14755;DHT22;7469;50.906;6.952;2023-08-07T07:24:06;13.30;99.90
14755;DHT22;7469;50.906;6.952;2023-08-07T07:26:34;13.20;99.90
14755;DHT22;7469;50.906;6.952;2023-08-07T07:29:02;13.30;99.90
14755;DHT22;7469;50.906;6.952;2023-08-07T07:31:30;13.30;99.90
14755;DHT22;7469;50.906;6.952;2023-08-07T07:33:58;13.30;99.90
14755;DHT22;7469;50.906;6.952;2023-08-07T07:36:26;13.20;99.90
14755;DHT22;7469;50.906;6.952;2023-08-07T07:38:54;13.30;99.90
14755;DHT22;7469;50.906;6.952;2023-08-07T07:41:23;13.30;99.90
14755;DHT22;7469;50.906;6.952;2023-08-07T07:43:52;13.30;99.90
14755;DHT22;7469;50.906;6.952;2023-08-07T07:46:22;13.40;99.90
14755;DHT22;7469;50.906;6.952;2023-08-07T07:48:51;13.40;99.90
14755;DHT22;7469;50.906;6.952;2023-08-07T07:51:19;13.40;99.90
14755;DHT22;7469;50.906;6.952;2023-08-07T07:53:47;13.40;99.90
14755;DHT22;7469;50.906;6.952;2023-08-07T07:56:36;13.40;99.90
14755;DHT22;7469;50.906;6.952;2023-08-07T07:59:04;13.40;99.90
14755;DHT22;7469;50.906;6.952;2023-08-07T08:01:35;13.40;99.90
14755;DHT22;7469;50.906;6.952;2023-08-07T08:04:04;13.50;99.90
14755;DHT22;7469;50.906;6.952;2023-08-07T08:06:32;13.60;99.90
14755;DHT22;7469;50.906;6.952;2023-08-07T08:09:00;13.60;99.90
14755;DHT22;7469;50.906;6.952;2023-08-07T08:11:31;13.70;99.90
14755;DHT22;7469;50.906;6.952;2023-08-07T08:14:01;13.80;99.90
14755;DHT22;7469;50.906;6.952;2023-08-07T08:16:29;13.90;99.90
14755;DHT22;7469;50.906;6.952;2023-08-07T08:18:57;13.90;99.90
14755;DHT22;7469;50.906;6.952;2023-08-07T08:21:25;14.00;99.90
14755;DHT22;7469;50.906;6.952;2023-08-07T08:23:53;14.00;99.90
14755;DHT22;7469;50.906;6.952;2023-08-07T08:26:21;14.10;99.90
14755;DHT22;7469;50.906;6.952;2023-08-07T08:28:49;14.10;99.90
14755;DHT22;7469;50.906;6.952;2023-08-07T08:31:18;14.10;99.90
14755;DHT22;7469;50.906;6.952;2023-08-07T08:33:48;14.20;99.90
14755;DHT22;7469;50.906;6.952;2023-08-07T08:36:16;14.30;99.90
14755;DHT22;7469;50.906;6.952;2023-08-07T08:38:44;14.40;99.90
14755;DHT22;7469;50.906;6.952;2023-08-07T08:41:16;14.50;99.90
14755;DHT22;7469;50.906;6.952;2023-08-07T08:43:46;14.60;99.90
14755;DHT22;7469;50.906;6.952;2023-08-07T08:46:15;14.50;99.90
14755;DHT22;7469;50.906;6.952;2023-08-07T08:48:50;14.50;99.90
14755;DHT22;7469;50.906;6.952;2023-08-07T08:51:19;14.50;99.90
14755;DHT22;7469;50.906;6.952;2023-08-07T08:53:49;14.50;99.90
14755;DHT22;7469;50.906;6.952;2023-08-07T08:56:18;14.50;99.90
14755;DHT22;7469;50.906;6.952;2023-08-07T08:58:50;14.60;99.90
14755;DHT22;7469;50.906;6.952;2023-08-07T09:01:18;14.60;99.90
14755;DHT22;7469;50.906;6.952;2023-08-07T09:03:50;14.70;99.90
14755;DHT22;7469;50.906;6.952;2023-08-07T09:06:19;14.80;99.90
14755;DHT22;7469;50.906;6.952;2023-08-07T09:08:47;14.90;99.90
14755;DHT22;7469;50.906;6.952;2023-08-07T09:11:16;14.90;99.90
14755;DHT22;7469;50.906;6.952;2023-08-07T09:13:47;15.00;99.90
14755;DHT22;7469;50.906;6.952;2023-08-07T09:16:17;15.10;99.90
14755;DHT22;7469;50.906;6.952;2023-08-07T09:18:46;15.20;99.90
14755;DHT22;7469;50.906;6.952;2023-08-07T09:21:16;15.20;99.90
14755;DHT22;7469;50.906;6.952;2023-08-07T09:23:45;15.30;99.90
14755;DHT22;7469;50.906;6.952;2023-08-07T09:26:13;15.40;99.90
14755;DHT22;7469;50.906;6.952;2023-08-07T09:28:51;15.40;99.90
14755;DHT22;7469;50.906;6.952;2023-08-07T09:31:20;15.50;99.90
14755;DHT22;7469;50.906;6.952;2023-08-07T09:33:48;15.50;99.90
14755;DHT22;7469;50.906;6.952;2023-08-07T09:36:18;15.60;99.90
14755;DHT22;7469;50.906;6.952;2023-08-07T09:38:49;15.70;99.90
14755;DHT22;7469;50.906;6.952;2023-08-07T09:41:18;15.80;99.90
14755;DHT22;7469;50.906;6.952;2023-08-07T09:43:46;15.90;99.90
14755;DHT22;7469;50.906;6.952;2023-08-07T09:46:14;15.90;99.90
14755;DHT22;7469;50.906;6.952;2023-08-07T09:48:45;16.10;99.90
14755;DHT22;7469;50.906;6.952;2023-08-07T09:51:13;16.30;99.90
14755;DHT22;7469;50.906;6.952;2023-08-07T09:53:42;16.70;99.90
14755;DHT22;7469;50.906;6.952;2023-08-07T09:56:11;16.90;99.90
14755;DHT22;7469;50.906;6.952;2023-08-07T09:58:46;17.00;99.90
14755;DHT22;7469;50.906;6.952;2023-08-07T10:01:16;17.00;99.90
14755;DHT22;7469;50.906;6.952;2023-08-07T10:03:45;17.00;99.90
14755;DHT22;7469;50.906;6.952;2023-08-07T10:06:14;16.90;99.90
14755;DHT22;7469;50.906;6.952;2023-08-07T10:08:45;16.90;99.90
14755;DHT22;7469;50.906;6.952;2023-08-07T10:11:13;16.90;99.90
14755;DHT22;7469;50.906;6.952;2023-08-07T10:13:45;16.90;99.90
14755;DHT22;7469;50.906;6.952;2023-08-07T10:16:13;17.00;99.90
14755;DHT22;7469;50.906;6.952;2023-08-07T10:18:42;17.00;99.90
14755;DHT22;7469;50.906;6.952;2023-08-07T10:21:10;17.00;99.90
14755;DHT22;7469;50.906;6.952;2023-08-07T10:23:39;17.10;99.90
14755;DHT22;7469;50.906;6.952;2023-08-07T10:26:10;17.20;99.90
14755;DHT22;7469;50.906;6.952;2023-08-07T10:28:39;17.40;99.90
14755;DHT22;7469;50.906;6.952;2023-08-07T10:31:09;17.70;99.90
14755;DHT22;7469;50.906;6.952;2023-08-07T10:33:37;18.20;99.90
14755;DHT22;7469;50.906;6.952;2023-08-07T10:36:08;18.60;99.90
14755;DHT22;7469;50.906;6.952;2023-08-07T10:38:37;18.60;99.90
14755;DHT22;7469;50.906;6.952;2023-08-07T10:41:10;18.50;99.90
14755;DHT22;7469;50.906;6.952;2023-08-07T10:43:40;18.30;99.90
14755;DHT22;7469;50.906;6.952;2023-08-07T10:46:12;18.30;99.90
14755;DHT22;7469;50.906;6.952;2023-08-07T10:48:42;18.70;99.90
14755;DHT22;7469;50.906;6.952;2023-08-07T10:51:12;19.30;99.90
14755;DHT22;7469;50.906;6.952;2023-08-07T10:53:41;19.90;99.90
14755;DHT22;7469;50.906;6.952;2023-08-07T10:56:16;20.50;99.90
14755;DHT22;7469;50.906;6.952;2023-08-07T10:58:49;20.90;99.90
14755;DHT22;7469;50.906;6.952;2023-08-07T11:01:22;21.20;99.90
14755;DHT22;7469;50.906;6.952;2023-08-07T11:03:51;21.30;99.90
14755;DHT22;7469;50.906;6.952;2023-08-07T11:06:24;21.10;99.90
14755;DHT22;7469;50.906;6.952;2023-08-07T11:08:53;20.70;99.90
14755;DHT22;7469;50.906;6.952;2023-08-07T11:11:22;20.30;99.90
14755;DHT22;7469;50.906;6.952;2023-08-07T11:13:50;20.00;99.90
14755;DHT22;7469;50.906;6.952;2023-08-07T11:16:19;20.20;99.90
14755;DHT22;7469;50.906;6.952;2023-08-07T11:18:49;20.70;99.90
14755;DHT22;7469;50.906;6.952;2023-08-07T11:21:17;20.80;99.90
14755;DHT22;7469;50.906;6.952;2023-08-07T11:23:46;20.80;99.90
14755;DHT22;7469;50.906;6.952;2023-08-07T11:26:14;20.70;99.90
14755;DHT22;7469;50.906;6.952;2023-08-07T11:28:43;20.70;99.90
14755;DHT22;7469;50.906;6.952;2023-08-07T11:31:11;20.80;99.90
14755;DHT22;7469;50.906;6.952;2023-08-07T11:33:40;21.10;99.90
14755;DHT22;7469;50.906;6.952;2023-08-07T11:36:10;21.40;99.90
14755;DHT22;7469;50.906;6.952;2023-08-07T11:38:40;21.70;99.90
14755;DHT22;7469;50.906;6.952;2023-08-07T11:41:11;21.50;99.90
14755;DHT22;7469;50.906;6.952;2023-08-07T11:43:40;21.20;99.90
14755;DHT22;7469;50.906;6.952;2023-08-07T11:46:11;20.80;99.90
14755;DHT22;7469;50.906;6.952;2023-08-07T11:48:40;20.70;99.90
14755;DHT22;7469;50.906;6.952;2023-08-07T11:51:08;20.80;99.90
14755;DHT22;7469;50.906;6.952;2023-08-07T11:53:38;20.70;99.90
14755;DHT22;7469;50.906;6.952;2023-08-07T11:56:07;20.50;99.90
14755;DHT22;7469;50.906;6.952;2023-08-07T11:58:37;20.20;99.90
14755;DHT22;7469;50.906;6.952;2023-08-07T12:01:05;20.20;99.90
14755;DHT22;7469;50.906;6.952;2023-08-07T12:03:37;20.10;99.90
14755;DHT22;7469;50.906;6.952;2023-08-07T12:06:07;20.20;99.90
14755;DHT22;7469;50.906;6.952;2023-08-07T12:08:37;20.20;99.90
14755;DHT22;7469;50.906;6.952;2023-08-07T12:11:07;20.20;99.90
14755;DHT22;7469;50.906;6.952;2023-08-07T12:13:37;20.20;99.90
14755;DHT22;7469;50.906;6.952;2023-08-07T12:16:06;20.30;99.90
14755;DHT22;7469;50.906;6.952;2023-08-07T12:18:37;20.40;99.90
14755;DHT22;7469;50.906;6.952;2023-08-07T12:21:07;20.40;99.90
14755;DHT22;7469;50.906;6.952;2023-08-07T12:23:36;20.40;99.90
14755;DHT22;7469;50.906;6.952;2023-08-07T12:26:05;20.40;99.90
14755;DHT22;7469;50.906;6.952;2023-08-07T12:28:34;20.40;99.90
14755;DHT22;7469;50.906;6.952;2023-08-07T12:31:03;20.30;99.90
14755;DHT22;7469;50.906;6.952;2023-08-07T12:33:31;20.20;99.90
14755;DHT22;7469;50.906;6.952;2023-08-07T12:36:01;20.20;99.90
14755;DHT22;7469;50.906;6.952;2023-08-07T12:38:29;20.10;99.90
14755;DHT22;7469;50.906;6.952;2023-08-07T12:40:57;20.10;99.90
14755;DHT22;7469;50.906;6.952;2023-08-07T12:43:26;20.00;99.90
14755;DHT22;7469;50.906;6.952;2023-08-07T12:45:54;20.00;99.90
14755;DHT22;7469;50.906;6.952;2023-08-07T12:48:42;20.00;99.90
14755;DHT22;7469;50.906;6.952;2023-08-07T12:51:11;20.00;99.90
14755;DHT22;7469;50.906;6.952;2023-08-07T12:53:39;20.00;99.90
14755;DHT22;7469;50.906;6.952;2023-08-07T12:56:07;20.20;99.90
14755;DHT22;7469;50.906;6.952;2023-08-07T12:58:35;20.40;99.90
14755;DHT22;7469;50.906;6.952;2023-08-07T13:01:05;20.70;99.90
14755;DHT22;7469;50.906;6.952;2023-08-07T13:03:33;20.80;99.90
14755;DHT22;7469;50.906;6.952;2023-08-07T13:06:01;21.10;99.90
14755;DHT22;7469;50.906;6.952;2023-08-07T13:08:33;21.20;99.90
14755;DHT22;7469;50.906;6.952;2023-08-07T13:11:02;21.30;99.90
14755;DHT22;7469;50.906;6.952;2023-08-07T13:13:30;21.40;99.50
14755;DHT22;7469;50.906;6.952;2023-08-07T13:15:58;21.40;99.40
14755;DHT22;7469;50.906;6.952;2023-08-07T13:18:26;21.50;99.00
14755;DHT22;7469;50.906;6.952;2023-08-07T13:20:53;21.50;98.90
14755;DHT22;7469;50.906;6.952;2023-08-07T13:23:23;21.30;99.00
14755;DHT22;7469;50.906;6.952;2023-08-07T13:25:54;21.10;99.10
14755;DHT22;7469;50.906;6.952;2023-08-07T13:28:22;21.00;99.60
14755;DHT22;7469;50.906;6.952;2023-08-07T13:30:50;20.90;99.20
14755;DHT22;7469;50.906;6.952;2023-08-07T13:33:20;21.10;99.00
14755;DHT22;7469;50.906;6.952;2023-08-07T13:35:49;21.20;99.00
14755;DHT22;7469;50.906;6.952;2023-08-07T13:38:17;21.40;98.90
14755;DHT22;7469;50.906;6.952;2023-08-07T13:40:45;21.60;98.80
14755;DHT22;7469;50.906;6.952;2023-08-07T13:43:19;21.70;98.60
14755;DHT22;7469;50.906;6.952;2023-08-07T13:45:47;21.60;98.70
14755;DHT22;7469;50.906;6.952;2023-08-07T13:48:17;21.50;98.60
14755;DHT22;7469;50.906;6.952;2023-08-07T13:50:45;21.50;98.40
14755;DHT22;7469;50.906;6.952;2023-08-07T13:53:13;21.40;98.50
14755;DHT22;7469;50.906;6.952;2023-08-07T13:55:43;21.30;98.60
14755;DHT22;7469;50.906;6.952;2023-08-07T13:58:11;21.20;99.20
14755;DHT22;7469;50.906;6.952;2023-08-07T14:00:43;21.00;99.20
14755;DHT22;7469;50.906;6.952;2023-08-07T14:03:11;20.80;99.70
14755;DHT22;7469;50.906;6.952;2023-08-07T14:05:40;20.70;99.90
14755;DHT22;7469;50.906;6.952;2023-08-07T14:08:08;20.60;99.90
14755;DHT22;7469;50.906;6.952;2023-08-07T14:10:38;20.50;99.90
14755;DHT22;7469;50.906;6.952;2023-08-07T14:13:08;20.70;99.90
14755;DHT22;7469;50.906;6.952;2023-08-07T14:15:38;21.00;99.90
14755;DHT22;7469;50.906;6.952;2023-08-07T14:18:08;21.30;99.90
14755;DHT22;7469;50.906;6.952;2023-08-07T14:20:37;21.60;99.90
14755;DHT22;7469;50.906;6.952;2023-08-07T14:23:25;21.80;99.90
14755;DHT22;7469;50.906;6.952;2023-08-07T14:25:55;21.90;99.40
14755;DHT22;7469;50.906;6.952;2023-08-07T14:28:23;21.90;99.20
14755;DHT22;7469;50.906;6.952;2023-08-07T14:30:52;21.70;99.50
14755;DHT22;7469;50.906;6.952;2023-08-07T14:33:21;21.50;99.90
14755;DHT22;7469;50.906;6.952;2023-08-07T14:35:49;21.20;99.80
14755;DHT22;7469;50.906;6.952;2023-08-07T14:38:17;20.90;99.80
14755;DHT22;7469;50.906;6.952;2023-08-07T14:40:45;20.80;99.70
14755;DHT22;7469;50.906;6.952;2023-08-07T14:43:13;20.50;99.70
14755;DHT22;7469;50.906;6.952;2023-08-07T14:45:41;20.50;99.90
14755;DHT22;7469;50.906;6.952;2023-08-07T14:48:09;20.80;99.90
14755;DHT22;7469;50.906;6.952;2023-08-07T14:50:38;20.70;99.90
14755;DHT22;7469;50.906;6.952;2023-08-07T14:53:06;20.60;99.90
14755;DHT22;7469;50.906;6.952;2023-08-07T14:55:34;20.60;99.90
14755;DHT22;7469;50.906;6.952;2023-08-07T14:58:02;20.70;99.90
14755;DHT22;7469;50.906;6.952;2023-08-07T15:00:30;20.70;99.90
14755;DHT22;7469;50.906;6.952;2023-08-07T15:02:58;20.70;99.90
14755;DHT22;7469;50.906;6.952;2023-08-07T15:05:27;20.90;99.90
14755;DHT22;7469;50.906;6.952;2023-08-07T15:07:56;20.90;99.90
14755;DHT22;7469;50.906;6.952;2023-08-07T15:10:24;21.10;99.90
14755;DHT22;7469;50.906;6.952;2023-08-07T15:12:52;21.20;99.90
14755;DHT22;7469;50.906;6.952;2023-08-07T15:15:20;21.40;99.90
14755;DHT22;7469;50.906;6.952;2023-08-07T15:17:48;21.40;99.90
14755;DHT22;7469;50.906;6.952;2023-08-07T15:20:16;21.50;99.90
14755;DHT22;7469;50.906;6.952;2023-08-07T15:22:46;21.70;99.90
14755;DHT22;7469;50.906;6.952;2023-08-07T15:25:17;21.80;99.80
14755;DHT22;7469;50.906;6.952;2023-08-07T15:27:45;21.90;99.90
14755;DHT22;7469;50.906;6.952;2023-08-07T15:30:13;22.10;99.80
14755;DHT22;7469;50.906;6.952;2023-08-07T15:32:41;22.10;99.70
14755;DHT22;7469;50.906;6.952;2023-08-07T15:35:09;22.10;99.70
14755;DHT22;7469;50.906;6.952;2023-08-07T15:37:37;22.00;99.90
14755;DHT22;7469;50.906;6.952;2023-08-07T15:40:06;21.90;99.90
14755;DHT22;7469;50.906;6.952;2023-08-07T15:42:36;21.80;99.90
14755;DHT22;7469;50.906;6.952;2023-08-07T15:45:04;21.80;99.90
14755;DHT22;7469;50.906;6.952;2023-08-07T15:47:32;22.00;99.90
14755;DHT22;7469;50.906;6.952;2023-08-07T15:50:01;22.10;99.90
14755;DHT22;7469;50.906;6.952;2023-08-07T15:52:29;22.30;99.90
14755;DHT22;7469;50.906;6.952;2023-08-07T15:54:57;22.30;99.40